createdAt,value
2019-04-29T00:00:44.754Z,102809.16
2019-04-29T00:03:14.123Z,102808.28
2019-04-29T00:05:43.497Z,102803.95
2019-04-29T00:08:12.848Z,102806.98
2019-04-29T00:10:42.199Z,102806.55
2019-04-29T00:13:11.553Z,102810.89
2019-04-29T00:15:58.275Z,102807.84
2019-04-29T00:18:38.418Z,102803.98
2019-04-29T00:21:07.796Z,102808.33
2019-04-29T00:23:37.148Z,102805.32
2019-04-29T00:26:06.611Z,102807.49
2019-04-29T00:28:35.976Z,102807.06
2019-04-29T00:31:05.306Z,102804.05
2019-04-29T00:33:34.699Z,102806.66
2019-04-29T00:36:04.096Z,102804.89
2019-04-29T00:38:48.072Z,102807.96
2019-04-29T00:41:28.635Z,102807.96
2019-04-29T00:44:00.355Z,102811.44
2019-04-29T00:46:29.706Z,102815.78
2019-04-29T00:48:59.088Z,102812.30
2019-04-29T00:51:28.441Z,102809.27
2019-04-29T00:54:03.095Z,102811.00
2019-04-29T00:56:32.436Z,102807.53
2019-04-29T00:59:01.822Z,102807.96
2019-04-29T01:01:31.303Z,102813.57
2019-04-29T01:04:00.647Z,102812.27
2019-04-29T01:06:30.029Z,102815.78
2019-04-29T01:08:59.403Z,102812.30
2019-04-29T01:11:28.755Z,102812.30
2019-04-29T01:13:58.082Z,102812.73
2019-04-29T01:16:27.449Z,102811.00
2019-04-29T01:18:56.827Z,102808.83
2019-04-29T01:21:27.235Z,102807.96
2019-04-29T01:23:56.601Z,102804.92
2019-04-29T01:26:59.911Z,102800.15
2019-04-29T01:29:29.836Z,102801.02
2019-04-29T01:31:59.258Z,102797.98
2019-04-29T01:34:33.430Z,102801.45
2019-04-29T01:37:02.822Z,102803.63
2019-04-29T01:39:47.417Z,102801.45
2019-04-29T01:42:29.107Z,102798.84
2019-04-29T01:44:58.461Z,102795.81
2019-04-29T01:47:27.802Z,102792.77
2019-04-29T01:49:57.163Z,102794.55
2019-04-29T01:52:26.515Z,102796.25
2019-04-29T01:54:55.897Z,102787.56
2019-04-29T01:57:25.237Z,102791.03
2019-04-29T01:59:54.574Z,102788.86
2019-04-29T02:02:23.911Z,102788.44
2019-04-29T02:04:53.264Z,102782.35
2019-04-29T02:07:22.639Z,102782.35
2019-04-29T02:10:06.910Z,102780.22
2019-04-29T02:12:36.295Z,102783.66
2019-04-29T02:15:06.252Z,102774.14
2019-04-29T02:17:35.581Z,102771.55
2019-04-29T02:20:05.476Z,102772.41
2019-04-29T02:22:43.097Z,102773.71
2019-04-29T02:25:17.321Z,102780.66
2019-04-29T02:27:46.663Z,102777.62
2019-04-29T02:30:35.486Z,102774.14
2019-04-29T02:33:04.839Z,102771.11
2019-04-29T02:35:34.182Z,102769.37
2019-04-29T02:38:05.004Z,102767.63
2019-04-29T02:40:40.920Z,102764.20
2019-04-29T02:43:15.530Z,102764.63
2019-04-29T02:45:46.124Z,102760.73
2019-04-29T02:48:15.478Z,102761.59
2019-04-29T02:50:44.790Z,102766.37
2019-04-29T02:53:14.147Z,102764.20
2019-04-29T02:55:47.975Z,102761.16
2019-04-29T02:58:34.809Z,102755.52
2019-04-29T03:01:23.287Z,102747.27
2019-04-29T03:04:02.766Z,102753.78
2019-04-29T03:06:32.112Z,102754.65
2019-04-29T03:09:01.491Z,102756.82
2019-04-29T03:11:30.963Z,102755.95
2019-04-29T03:14:01.318Z,102750.31
2019-04-29T03:16:30.638Z,102757.69
2019-04-29T03:19:04.445Z,102757.69
2019-04-29T03:21:42.140Z,102759.86
2019-04-29T03:24:11.489Z,102760.73
2019-04-29T03:26:40.842Z,102758.99
2019-04-29T03:29:22.231Z,102751.22
2019-04-29T03:31:56.724Z,102757.30
2019-04-29T03:34:26.155Z,102755.99
2019-04-29T03:36:55.536Z,102755.56
2019-04-29T03:39:24.921Z,102750.82
2019-04-29T03:41:54.292Z,102753.42
2019-04-29T03:44:25.914Z,102751.25
2019-04-29T03:46:55.271Z,102750.83
2019-04-29T03:49:24.610Z,102754.73
2019-04-29T03:51:53.962Z,102750.86
2019-04-29T03:54:23.293Z,102755.64
2019-04-29T03:56:53.837Z,102751.77
2019-04-29T03:59:23.195Z,102749.59
2019-04-29T04:02:14.206Z,102750.47
2019-04-29T04:05:14.353Z,102749.20
2019-04-29T04:07:50.893Z,102753.98
2019-04-29T04:10:20.276Z,102754.45
2019-04-29T04:12:49.656Z,102755.32
2019-04-29T04:15:18.968Z,102753.19
2019-04-29T04:17:57.741Z,102752.75
2019-04-29T04:20:27.338Z,102751.45
2019-04-29T04:22:56.709Z,102754.92
2019-04-29T04:25:27.232Z,102751.05
2019-04-29T04:27:56.593Z,102751.92
2019-04-29T04:30:25.926Z,102752.39
2019-04-29T04:32:55.294Z,102754.56
2019-04-29T04:35:24.645Z,102749.83
2019-04-29T04:37:54.014Z,102749.83
2019-04-29T04:40:29.680Z,102745.92
2019-04-29T04:43:00.830Z,102748.95
2019-04-29T04:45:30.171Z,102745.09
2019-04-29T04:47:59.548Z,102745.95
2019-04-29T04:50:28.887Z,102744.69
2019-04-29T04:52:58.209Z,102742.99
2019-04-29T04:55:30.164Z,102743.86
2019-04-29T04:58:01.822Z,102745.63
2019-04-29T05:00:33.035Z,102749.10
2019-04-29T05:03:02.363Z,102746.94
2019-04-29T05:05:32.494Z,102744.33
2019-04-29T05:08:01.845Z,102747.80
2019-04-29T05:10:31.219Z,102746.97
2019-04-29T05:13:00.572Z,102752.61
2019-04-29T05:15:33.048Z,102756.11
2019-04-29T05:18:02.411Z,102756.98
2019-04-29T05:20:31.748Z,102762.63
2019-04-29T05:23:01.168Z,102763.95
2019-04-29T05:25:31.429Z,102766.56
2019-04-29T05:28:01.275Z,102768.30
2019-04-29T05:30:30.622Z,102770.93
2019-04-29T05:32:59.947Z,102770.06
2019-04-29T05:35:35.444Z,102762.25
2019-04-29T05:38:19.814Z,102767.06
2019-04-29T05:40:51.028Z,102773.16
2019-04-29T05:43:27.114Z,102773.16
2019-04-29T05:46:10.615Z,102776.63
2019-04-29T05:48:39.980Z,102780.97
2019-04-29T05:51:28.587Z,102782.27
2019-04-29T05:53:59.205Z,102777.06
2019-04-29T05:56:28.531Z,102772.77
2019-04-29T05:58:57.891Z,102775.77
2019-04-29T06:01:28.730Z,102774.89
2019-04-29T06:03:58.052Z,102776.20
2019-04-29T06:06:27.491Z,102785.73
2019-04-29T06:08:56.844Z,102783.57
2019-04-29T06:11:26.220Z,102783.14
2019-04-29T06:13:55.549Z,102785.73
2019-04-29T06:16:24.883Z,102781.84
2019-04-29T06:18:59.810Z,102786.61
2019-04-29T06:21:25.270Z,102793.08
2019-04-29T06:23:54.859Z,102794.38
2019-04-29T06:26:27.918Z,102796.08
2019-04-29T06:28:58.280Z,102795.68
2019-04-29T06:31:27.630Z,102796.52
2019-04-29T06:34:00.732Z,102796.52
2019-04-29T06:36:28.129Z,102795.22
2019-04-29T06:38:57.457Z,102806.02
2019-04-29T06:41:26.816Z,102802.13
2019-04-29T06:43:56.338Z,102799.52
2019-04-29T06:46:27.298Z,102805.13
2019-04-29T06:49:09.543Z,102813.34
2019-04-29T06:51:27.687Z,102805.93
2019-04-29T06:53:57.021Z,102808.53
2019-04-29T06:56:26.381Z,102811.97
2019-04-29T06:58:55.736Z,102818.47
2019-04-29T07:01:25.084Z,102818.41
2019-04-29T07:03:55.782Z,102819.24
2019-04-29T07:06:25.534Z,102820.55
2019-04-29T07:08:54.906Z,102826.15
2019-04-29T07:11:24.295Z,102823.95
2019-04-29T07:13:57.692Z,102826.52
2019-04-29T07:16:27.221Z,102826.05
2019-04-29T07:18:55.887Z,102830.36
2019-04-29T07:21:25.451Z,102833.79
2019-04-29T07:23:54.877Z,102833.32
2019-04-29T07:26:24.316Z,102838.06
2019-04-29T07:28:56.864Z,102836.72
2019-04-29T07:31:28.136Z,102834.08
2019-04-29T07:33:57.932Z,102832.74
2019-04-29T07:36:27.043Z,102836.61
2019-04-29T07:38:56.884Z,102845.26
2019-04-29T07:41:26.296Z,102835.23
2019-04-29T07:43:55.657Z,102847.36
2019-04-29T07:46:30.352Z,102845.62
2019-04-29T07:49:01.592Z,102846.45
2019-04-29T07:51:34.887Z,102845.55
2019-04-29T07:54:01.828Z,102851.19
2019-04-29T07:56:31.176Z,102848.94
2019-04-29T07:59:03.006Z,102848.90
2019-04-29T08:01:31.587Z,102850.16
2019-04-29T08:04:01.090Z,102852.73
2019-04-29T08:06:31.637Z,102855.26
2019-04-29T08:09:07.136Z,102850.88
2019-04-29T08:11:32.978Z,102851.70
2019-04-29T08:14:03.366Z,102853.39
2019-04-29T08:16:32.864Z,102850.28
2019-04-29T08:19:04.706Z,102849.37
2019-04-29T08:21:33.254Z,102841.06
2019-04-29T08:24:02.610Z,102840.55
2019-04-29T08:26:33.692Z,102837.89
2019-04-29T08:29:03.040Z,102837.38
2019-04-29T08:31:32.394Z,102838.20
2019-04-29T08:34:27.538Z,102839.41
2019-04-29T08:36:56.879Z,102838.93
2019-04-29T08:39:29.307Z,102841.02
2019-04-29T08:41:59.005Z,102843.57
2019-04-29T08:44:54.741Z,102840.05
2019-04-29T08:47:30.533Z,102842.61
2019-04-29T08:49:56.882Z,102842.95
2019-04-29T08:52:26.232Z,102847.68
2019-04-29T08:54:57.273Z,102844.55
2019-04-29T08:57:26.721Z,102844.11
2019-04-29T08:59:56.056Z,102846.67
2019-04-29T09:02:34.573Z,102847.06
2019-04-29T09:04:56.482Z,102848.31
2019-04-29T09:07:25.841Z,102845.22
2019-04-29T09:09:56.053Z,102845.16
2019-04-29T09:12:29.440Z,102850.73
2019-04-29T09:14:57.423Z,102852.42
2019-04-29T09:17:26.762Z,102854.09
2019-04-29T09:19:56.130Z,102851.44
2019-04-29T09:22:27.151Z,102856.50
2019-04-29T09:25:28.592Z,102853.79
2019-04-29T09:27:58.774Z,102856.73
2019-04-29T09:30:28.098Z,102860.59
2019-04-29T09:32:57.466Z,102860.59
2019-04-29T09:35:28.770Z,102859.20
2019-04-29T09:37:58.598Z,102862.52
2019-04-29T09:40:31.141Z,102862.52
2019-04-29T09:43:21.393Z,102858.09
2019-04-29T09:46:18.581Z,102858.08
2019-04-29T09:48:47.475Z,102860.19
2019-04-29T09:51:18.228Z,102864.45
2019-04-29T09:53:47.917Z,102864.45
2019-04-29T09:56:17.245Z,102860.51
2019-04-29T09:58:46.607Z,102859.59
2019-04-29T10:01:23.873Z,102857.80
2019-04-29T10:04:21.466Z,102866.83
2019-04-29T10:06:53.052Z,102866.83
2019-04-29T10:09:22.989Z,102863.34
2019-04-29T10:11:52.366Z,102868.44
2019-04-29T10:14:21.801Z,102874.00
2019-04-29T10:17:16.697Z,102874.00
2019-04-29T10:20:04.398Z,102867.09
2019-04-29T10:22:34.549Z,102870.00
2019-04-29T10:25:03.915Z,102868.97
2019-04-29T10:27:33.262Z,102868.97
2019-04-29T10:30:02.743Z,102866.29
2019-04-29T10:32:32.119Z,102869.72
2019-04-29T10:35:03.524Z,102872.20
2019-04-29T10:37:32.704Z,102872.20
2019-04-29T10:40:19.781Z,102864.25
2019-04-29T10:43:02.300Z,102862.31
2019-04-29T10:45:49.225Z,102862.31
2019-04-29T10:48:25.513Z,102869.17
2019-04-29T10:50:57.066Z,102865.11
2019-04-29T10:53:28.869Z,102871.95
2019-04-29T10:56:00.903Z,102868.83
2019-04-29T10:58:35.459Z,102868.83
2019-04-29T11:02:09.393Z,102875.06
2019-04-29T11:04:36.143Z,102875.06
2019-04-29T11:07:25.943Z,102871.49
2019-04-29T11:09:57.506Z,102867.25
2019-04-29T11:12:26.865Z,102867.25
2019-04-29T11:14:56.536Z,102868.77
2019-04-29T11:17:27.759Z,102871.05
2019-04-29T11:19:57.590Z,102871.05
2019-04-29T11:22:34.007Z,102869.05
2019-04-29T11:25:21.064Z,102869.78
2019-04-29T11:27:55.974Z,102869.78
2019-04-29T11:30:26.053Z,102869.70
2019-04-29T11:33:13.220Z,102870.05
2019-04-29T11:35:59.150Z,102866.13
2019-04-29T11:38:33.367Z,102875.38
2019-04-29T11:41:01.039Z,102875.38
2019-04-29T11:43:31.197Z,102871.36
2019-04-29T11:46:00.714Z,102877.33
2019-04-29T11:48:30.074Z,102877.33
2019-04-29T11:51:18.340Z,102868.84
2019-04-29T11:53:47.958Z,102868.84
2019-04-29T11:56:17.292Z,102880.47
2019-04-29T11:59:04.524Z,102867.28
2019-04-29T12:01:53.487Z,102868.07
2019-04-29T12:07:34.042Z,102876.49
2019-04-29T12:10:06.633Z,102876.49
2019-04-29T12:12:34.944Z,102869.75
2019-04-29T12:15:20.837Z,102857.87
2019-04-29T12:18:18.501Z,102871.61
2019-04-29T12:21:21.973Z,102872.25
2019-04-29T12:23:52.106Z,102871.56
2019-04-29T12:26:22.659Z,102868.36
2019-04-29T12:28:52.095Z,102869.19
2019-04-29T12:31:36.962Z,102859.15
2019-04-29T12:34:28.326Z,102861.27
2019-04-29T12:36:57.676Z,102857.30
2019-04-29T12:39:55.016Z,102859.45
2019-04-29T12:42:42.156Z,102857.69
2019-04-29T12:45:28.160Z,102855.94
2019-04-29T12:47:57.470Z,102849.80
2019-04-29T12:50:27.316Z,102844.58
2019-04-29T12:52:56.692Z,102843.27
2019-04-29T12:55:45.016Z,102839.34
2019-04-29T12:58:07.838Z,102836.77
2019-04-29T13:00:47.385Z,102838.59
2019-04-29T13:03:24.680Z,102833.35
2019-04-29T13:06:05.533Z,102830.22
2019-04-29T13:08:39.527Z,102829.27
2019-04-29T13:11:09.108Z,102825.36
2019-04-29T13:13:38.483Z,102826.64
2019-04-29T13:16:29.966Z,102834.00
2019-04-29T13:19:25.224Z,102827.06
2019-04-29T13:21:52.263Z,102828.82
2019-04-29T13:24:24.907Z,102827.89
2019-04-29T13:26:52.684Z,102827.00
2019-04-29T13:29:27.135Z,102827.80
2019-04-29T13:31:53.124Z,102823.84
2019-04-29T13:34:30.993Z,102824.67
2019-04-29T13:37:07.377Z,102822.44
2019-04-29T13:39:39.971Z,102811.44
2019-04-29T13:42:02.975Z,102814.50
2019-04-29T13:44:41.799Z,102814.06
2019-04-29T13:47:30.853Z,102814.86
2019-04-29T13:50:38.365Z,102808.27
2019-04-29T13:52:52.740Z,102808.21
2019-04-29T13:55:46.567Z,102808.66
2019-04-29T13:57:54.969Z,102808.21
2019-04-29T14:00:36.560Z,102806.39
2019-04-29T14:03:11.677Z,102807.31
2019-04-29T14:05:41.802Z,102804.69
2019-04-29T14:08:11.213Z,102808.12
2019-04-29T14:10:40.576Z,102801.59
2019-04-29T14:13:16.096Z,102798.97
2019-04-29T14:15:40.986Z,102796.31
2019-04-29T14:18:11.613Z,102796.25
2019-04-29T14:20:41.477Z,102792.77
2019-04-29T14:23:10.810Z,102792.70
2019-04-29T14:25:40.137Z,102791.71
2019-04-29T14:28:09.539Z,102785.92
2019-04-29T14:30:39.447Z,102797.15
2019-04-29T14:33:10.101Z,102794.05
2019-04-29T14:35:48.365Z,102797.12
2019-04-29T14:38:18.575Z,102795.36
2019-04-29T14:40:47.924Z,102794.88
2019-04-29T14:43:30.762Z,102792.25
2019-04-29T14:46:30.115Z,102791.87
2019-04-29T14:49:26.109Z,102791.00
2019-04-29T14:51:55.475Z,102793.22
2019-04-29T14:54:24.822Z,102792.34
2019-04-29T14:56:54.183Z,102797.15
2019-04-29T14:59:23.861Z,102784.03
2019-04-29T15:02:03.982Z,102796.25
2019-04-29T15:04:41.947Z,102793.63
2019-04-29T15:07:11.339Z,102790.14
2019-04-29T15:09:57.780Z,102787.97
2019-04-29T15:13:19.602Z,102790.14
2019-04-29T15:16:04.449Z,102787.58
2019-04-29T15:18:49.139Z,102790.59
2019-04-29T15:21:32.752Z,102787.97
2019-04-29T15:23:58.536Z,102779.20
2019-04-29T15:26:27.910Z,102775.71
2019-04-29T15:28:57.322Z,102770.81
2019-04-29T15:31:26.676Z,102764.95
2019-04-29T15:33:56.022Z,102770.45
2019-04-29T15:36:25.384Z,102763.25
2019-04-29T15:39:08.533Z,102761.31
2019-04-29T15:41:31.036Z,102762.53
2019-04-29T15:44:07.089Z,102763.67
2019-04-29T15:46:31.321Z,102764.78
2019-04-29T15:48:59.021Z,102762.95
2019-04-29T15:51:28.390Z,102755.37
2019-04-29T15:53:57.754Z,102758.73
2019-04-29T15:56:29.119Z,102753.38
2019-04-29T15:58:59.452Z,102754.59
2019-04-29T16:01:30.479Z,102754.06
2019-04-29T16:04:02.066Z,102749.67
2019-04-29T16:06:53.159Z,102746.95
2019-04-29T16:09:51.168Z,102742.90
2019-04-29T16:12:15.566Z,102741.55
2019-04-29T16:14:49.046Z,102748.49
2019-04-29T16:17:20.329Z,102751.12
2019-04-29T16:19:47.238Z,102742.03
2019-04-29T16:22:19.752Z,102739.41
2019-04-29T16:24:47.667Z,102742.90
2019-04-29T16:27:17.048Z,102737.20
2019-04-29T16:29:51.445Z,102737.20
2019-04-29T16:32:39.347Z,102732.84
2019-04-29T16:35:09.118Z,102737.30
2019-04-29T16:37:38.876Z,102736.16
2019-04-29T16:40:09.545Z,102738.90
2019-04-29T16:43:10.011Z,102741.56
2019-04-29T16:46:01.170Z,102738.87
2019-04-29T16:48:30.944Z,102752.00
2019-04-29T16:51:00.326Z,102737.03
2019-04-29T16:53:29.664Z,102737.03
2019-04-29T16:55:59.016Z,102736.73
2019-04-29T16:58:28.349Z,102746.47
2019-04-29T17:00:57.713Z,102741.80
2019-04-29T17:03:27.083Z,102743.21
2019-04-29T17:05:56.384Z,102738.09
2019-04-29T17:08:31.781Z,102739.58
2019-04-29T17:11:17.582Z,102740.95
2019-04-29T17:13:50.801Z,102740.54
2019-04-29T17:16:21.827Z,102745.27
2019-04-29T17:18:51.206Z,102738.23
2019-04-29T17:21:20.568Z,102739.41
2019-04-29T17:23:49.948Z,102745.97
2019-04-29T17:26:20.955Z,102742.97
2019-04-29T17:29:11.992Z,102743.52
2019-04-29T17:31:57.091Z,102739.67
2019-04-29T17:34:56.073Z,102742.88
2019-04-29T17:36:58.913Z,102741.19
2019-04-29T17:39:28.946Z,102741.77
2019-04-29T17:42:04.120Z,102745.35
2019-04-29T17:44:42.402Z,102748.52
2019-04-29T17:47:49.120Z,102743.79
2019-04-29T17:50:39.276Z,102744.30
2019-04-29T17:53:27.738Z,102740.91
2019-04-29T17:56:12.858Z,102736.69
2019-04-29T17:58:51.743Z,102734.61
2019-04-29T18:01:46.895Z,102735.57
2019-04-29T18:04:58.762Z,102731.73
2019-04-29T18:07:51.697Z,102738.29
2019-04-29T18:10:29.454Z,102731.34
2019-04-29T18:12:57.264Z,102729.56
2019-04-29T18:15:40.374Z,102735.67
2019-04-29T18:18:05.364Z,102736.38
2019-04-29T18:20:55.216Z,102740.45
2019-04-29T18:23:47.110Z,102735.59
2019-04-29T18:26:22.080Z,102743.12
2019-04-29T18:28:51.407Z,102741.17
2019-04-29T18:31:20.805Z,102736.39
2019-04-29T18:33:50.168Z,102740.45
2019-04-29T18:36:24.169Z,102734.00
2019-04-29T18:38:50.670Z,102729.50
2019-04-29T18:41:24.668Z,102729.39
2019-04-29T18:43:51.072Z,102725.83
2019-04-29T18:46:20.457Z,102729.43
2019-04-29T18:48:49.834Z,102734.34
2019-04-29T18:51:20.837Z,102735.77
2019-04-29T18:53:50.350Z,102737.38
2019-04-29T18:56:19.718Z,102737.38
2019-04-29T18:58:50.359Z,102732.30
2019-04-29T19:01:19.973Z,102735.14
2019-04-29T19:03:58.399Z,102735.36
2019-04-29T19:06:27.794Z,102736.03
2019-04-29T19:09:01.729Z,102736.03
2019-04-29T19:11:32.123Z,102735.00
2019-04-29T19:13:59.624Z,102736.17
2019-04-29T19:16:28.956Z,102732.55
2019-04-29T19:19:01.696Z,102721.45
2019-04-29T19:21:31.456Z,102723.94
2019-04-29T19:24:00.806Z,102729.96
2019-04-29T19:26:30.102Z,102730.67
2019-04-29T19:29:01.387Z,102732.69
2019-04-29T19:31:30.535Z,102740.02
2019-04-29T19:33:59.859Z,102731.98
2019-04-29T19:36:29.239Z,102734.41
2019-04-29T19:38:58.550Z,102745.63
2019-04-29T19:41:27.908Z,102740.20
2019-04-29T19:43:57.255Z,102745.75
2019-04-29T19:46:36.965Z,102756.05
2019-04-29T19:49:04.546Z,102756.25
2019-04-29T19:51:28.814Z,102762.65
2019-04-29T19:53:58.132Z,102762.48
2019-04-29T19:56:28.650Z,102774.41
2019-04-29T19:58:58.741Z,102776.80
2019-04-29T20:01:32.405Z,102780.11
2019-04-29T20:04:22.689Z,102785.04
2019-04-29T20:06:58.071Z,102786.27
2019-04-29T20:09:27.083Z,102786.27
2019-04-29T20:11:55.830Z,102797.53
2019-04-29T20:14:29.608Z,102805.95
2019-04-29T20:17:17.667Z,102809.59
2019-04-29T20:20:00.096Z,102801.59
2019-04-29T20:22:27.214Z,102801.59
2019-04-29T20:24:56.753Z,102811.67
2019-04-29T20:27:30.780Z,102814.93
2019-04-29T20:29:57.419Z,102814.93
2019-04-29T20:32:31.719Z,102819.92
2019-04-29T20:35:06.911Z,102819.16
2019-04-29T20:37:31.402Z,102813.20
2019-04-29T20:40:01.116Z,102819.79
2019-04-29T20:42:30.599Z,102816.44
2019-04-29T20:45:00.020Z,102823.41
2019-04-29T20:47:37.510Z,102823.41
2019-04-29T20:50:00.633Z,102825.28
2019-04-29T20:52:42.285Z,102822.73
2019-04-29T20:55:11.864Z,102827.20
2019-04-29T20:57:41.403Z,102831.13
2019-04-29T21:00:11.676Z,102836.84
2019-04-29T21:02:41.241Z,102836.84
2019-04-29T21:05:19.888Z,102833.42
2019-04-29T21:07:42.238Z,102826.59
2019-04-29T21:10:11.776Z,102826.59
2019-04-29T21:13:02.876Z,102823.58
2019-04-29T21:15:36.751Z,102822.29
2019-04-29T21:18:06.213Z,102822.29
2019-04-29T21:20:35.600Z,102819.78
2019-04-29T21:23:04.950Z,102823.27
2019-04-29T21:25:35.393Z,102816.04
2019-04-29T21:28:05.507Z,102825.95
2019-04-29T21:30:37.905Z,102820.45
2019-04-29T21:33:08.229Z,102820.45
2019-04-29T21:35:57.867Z,102830.03
2019-04-29T21:39:01.400Z,102829.17
2019-04-29T21:41:43.588Z,102830.53
2019-04-29T21:44:12.953Z,102812.38
2019-04-29T21:46:42.293Z,102812.38
2019-04-29T21:49:12.675Z,102817.62
2019-04-29T21:51:46.572Z,102823.77
2019-04-29T21:54:14.316Z,102823.77
2019-04-29T21:56:47.832Z,102816.91
2019-04-29T21:59:15.794Z,102817.35
2019-04-29T22:01:45.653Z,102817.35
2019-04-29T22:04:15.050Z,102815.71
2019-04-29T22:06:47.217Z,102826.17
2019-04-29T22:09:18.185Z,102820.13
2019-04-29T22:11:47.725Z,102822.36
2019-04-29T22:14:17.137Z,102826.31
2019-04-29T22:16:47.623Z,102827.25
2019-04-29T22:19:17.703Z,102827.25
2019-04-29T22:21:47.026Z,102827.69
2019-04-29T22:24:16.481Z,102829.92
2019-04-29T22:26:45.821Z,102833.02
2019-04-29T22:29:15.190Z,102829.59
2019-04-29T22:31:45.862Z,102834.05
2019-04-29T22:34:19.056Z,102832.36
2019-04-29T22:36:48.263Z,102838.49
2019-04-29T22:39:17.407Z,102836.77
2019-04-29T22:42:04.546Z,102829.89
2019-04-29T22:44:35.900Z,102832.98
2019-04-29T22:47:05.721Z,102842.23
2019-04-29T22:49:35.438Z,102842.23
2019-04-29T22:52:04.867Z,102844.02
2019-04-29T22:54:35.337Z,102835.84
2019-04-29T22:57:05.768Z,102837.64
2019-04-29T22:59:35.440Z,102830.73
2019-04-29T23:02:05.849Z,102836.43
2019-04-29T23:04:35.249Z,102843.91
2019-04-29T23:07:04.673Z,102840.05
2019-04-29T23:09:36.551Z,102852.23
2019-04-29T23:12:05.499Z,102848.39
2019-04-29T23:14:36.097Z,102845.41
2019-04-29T23:17:12.052Z,102841.97
2019-04-29T23:19:36.786Z,102852.84
2019-04-29T23:22:42.371Z,102845.06
2019-04-29T23:25:21.832Z,102849.45
2019-04-29T23:27:52.669Z,102845.62
2019-04-29T23:30:25.133Z,102845.24
2019-04-29T23:32:56.116Z,102848.77
2019-04-29T23:35:25.552Z,102846.23
2019-04-29T23:37:58.742Z,102837.59
2019-04-29T23:40:25.987Z,102840.20
2019-04-29T23:42:57.315Z,102851.53
2019-04-29T23:45:26.456Z,102850.31
2019-04-29T23:47:55.803Z,102850.31
2019-04-29T23:50:25.754Z,102860.31
2019-04-29T23:52:56.219Z,102856.44
2019-04-29T23:55:29.087Z,102857.78
2019-04-29T23:58:22.546Z,102848.73
